createdAt,value
2022-08-05T00:01:36.230Z,97782.31
2022-08-05T00:04:18.085Z,97781.86
2022-08-05T00:06:47.295Z,97780.98
2022-08-05T00:09:19.811Z,97780.04
2022-08-05T00:11:55.777Z,97778.30
2022-08-05T00:14:27.744Z,97778.25
2022-08-05T00:16:57.837Z,97778.77
2022-08-05T00:19:33.227Z,97779.86
2022-08-05T00:22:11.273Z,97779.73
2022-08-05T00:24:42.359Z,97778.80
2022-08-05T00:27:28.527Z,97776.70
2022-08-05T00:29:58.473Z,97780.80
2022-08-05T00:32:28.645Z,97779.83
2022-08-05T00:35:06.696Z,97781.67
2022-08-05T00:37:52.824Z,97778.08
2022-08-05T00:40:27.220Z,97771.91
2022-08-05T00:42:58.738Z,97767.52
2022-08-05T00:45:37.862Z,97770.42
2022-08-05T00:48:12.301Z,97769.64
2022-08-05T00:50:41.983Z,97772.23
2022-08-05T00:53:45.081Z,97772.20
2022-08-05T00:56:00.451Z,97772.84
2022-08-05T00:58:28.223Z,97771.92
2022-08-05T01:00:56.490Z,97769.17
2022-08-05T01:03:31.096Z,97770.16
2022-08-05T01:06:03.858Z,97772.27
2022-08-05T01:08:42.611Z,97775.10
2022-08-05T01:11:33.345Z,97774.05
2022-08-05T01:14:28.364Z,97773.91
2022-08-05T01:17:05.348Z,97769.88
2022-08-05T01:20:01.682Z,97767.94
2022-08-05T01:22:59.846Z,97770.17
2022-08-05T01:25:54.715Z,97767.11
2022-08-05T01:28:39.315Z,97765.25
2022-08-05T01:31:28.866Z,97766.52
2022-08-05T01:34:17.792Z,97765.27
2022-08-05T01:36:56.410Z,97764.29
2022-08-05T01:39:46.341Z,97765.27
2022-08-05T01:42:19.880Z,97767.64
2022-08-05T01:44:53.883Z,97768.39
2022-08-05T01:47:24.678Z,97766.37
2022-08-05T01:50:15.606Z,97764.96
2022-08-05T01:52:49.955Z,97764.63
2022-08-05T01:55:21.278Z,97761.00
2022-08-05T01:58:29.384Z,97761.89
2022-08-05T02:00:43.171Z,97764.52
2022-08-05T02:03:31.880Z,97760.11
2022-08-05T02:06:37.700Z,97759.91
2022-08-05T02:08:57.950Z,97757.77
2022-08-05T02:11:32.732Z,97756.26
2022-08-05T02:14:24.978Z,97754.07
2022-08-05T02:16:55.835Z,97758.09
2022-08-05T02:19:47.600Z,97756.70
2022-08-05T02:22:26.413Z,97754.32
2022-08-05T02:25:05.774Z,97755.11
2022-08-05T02:27:59.763Z,97755.09
2022-08-05T02:30:29.971Z,97752.84
2022-08-05T02:32:59.441Z,97748.57
2022-08-05T02:35:33.179Z,97746.66
2022-08-05T02:38:09.248Z,97746.71
2022-08-05T02:40:39.542Z,97745.13
2022-08-05T02:43:07.618Z,97748.48
2022-08-05T02:45:52.129Z,97747.25
2022-08-05T02:48:29.479Z,97746.08
2022-08-05T02:51:01.524Z,97745.23
2022-08-05T02:53:39.602Z,97745.20
2022-08-05T02:56:16.130Z,97740.64
2022-08-05T02:58:51.403Z,97741.46
2022-08-05T03:01:24.998Z,97738.98
2022-08-05T03:04:02.613Z,97742.95
2022-08-05T03:06:54.483Z,97742.73
2022-08-05T03:09:36.381Z,97743.86
2022-08-05T03:12:07.829Z,97746.70
2022-08-05T03:14:45.828Z,97747.55
2022-08-05T03:17:14.047Z,97750.81
2022-08-05T03:19:42.319Z,97748.27
2022-08-05T03:22:16.371Z,97751.41
2022-08-05T03:24:50.907Z,97752.40
2022-08-05T03:27:21.232Z,97756.75
2022-08-05T03:30:08.099Z,97752.69
2022-08-05T03:32:38.176Z,97752.63
2022-08-05T03:35:06.957Z,97753.40
2022-08-05T03:37:41.751Z,97753.63
2022-08-05T03:40:15.396Z,97752.91
2022-08-05T03:42:52.869Z,97755.17
2022-08-05T03:45:23.309Z,97758.30
2022-08-05T03:47:56.923Z,97756.88
2022-08-05T03:50:49.792Z,97754.86
2022-08-05T03:55:07.137Z,97755.98
2022-08-05T03:56:46.637Z,97758.35
2022-08-05T03:59:20.990Z,97757.85
2022-08-05T04:01:50.290Z,97757.31
2022-08-05T04:04:21.265Z,97757.80
2022-08-05T04:06:51.353Z,97759.41
2022-08-05T04:09:25.942Z,97755.53
2022-08-05T04:11:56.366Z,97752.15
2022-08-05T04:14:30.102Z,97752.78
2022-08-05T04:17:00.540Z,97749.63
2022-08-05T04:19:29.549Z,97748.17
2022-08-05T04:22:09.221Z,97746.31
2022-08-05T04:24:44.366Z,97747.96
2022-08-05T04:27:13.898Z,97748.31
2022-08-05T04:29:43.261Z,97751.16
2022-08-05T04:32:11.035Z,97753.66
2022-08-05T04:34:43.084Z,97754.66
2022-08-05T04:37:11.392Z,97751.55
2022-08-05T04:39:40.469Z,97755.12
2022-08-05T04:42:09.055Z,97755.21
2022-08-05T04:44:37.051Z,97753.73
2022-08-05T04:47:09.889Z,97750.55
2022-08-05T04:50:01.538Z,97744.55
2022-08-05T04:52:27.960Z,97746.86
2022-08-05T04:54:57.497Z,97745.63
2022-08-05T04:57:28.687Z,97743.41
2022-08-05T04:59:58.536Z,97744.88
2022-08-05T05:02:37.196Z,97740.97
2022-08-05T05:05:16.929Z,97741.05
2022-08-05T05:08:14.173Z,97737.44
2022-08-05T05:10:56.653Z,97736.92
2022-08-05T05:13:24.512Z,97734.82
2022-08-05T05:15:56.141Z,97727.83
2022-08-05T05:18:31.146Z,97730.70
2022-08-05T05:21:03.788Z,97731.17
2022-08-05T05:23:39.444Z,97728.59
2022-08-05T05:26:20.100Z,97729.06
2022-08-05T05:28:56.990Z,97726.91
2022-08-05T05:31:25.151Z,97727.28
2022-08-05T05:34:02.367Z,97724.80
2022-08-05T05:36:31.925Z,97727.23
2022-08-05T05:38:59.781Z,97725.24
2022-08-05T05:41:40.486Z,97726.78
2022-08-05T05:44:35.608Z,97727.66
2022-08-05T05:46:58.550Z,97729.48
2022-08-05T05:49:33.088Z,97728.00
2022-08-05T05:52:01.548Z,97730.90
2022-08-05T05:54:50.594Z,97730.98
2022-08-05T05:57:20.150Z,97731.54
2022-08-05T05:59:48.999Z,97728.64
2022-08-05T06:02:17.266Z,97722.48
2022-08-05T06:05:01.311Z,97723.27
2022-08-05T06:07:41.695Z,97722.53
2022-08-05T06:10:11.245Z,97726.08
2022-08-05T06:12:42.320Z,97729.98
2022-08-05T06:15:16.449Z,97732.02
2022-08-05T06:17:53.580Z,97738.75
2022-08-05T06:20:22.306Z,97739.05
2022-08-05T06:22:50.327Z,97739.11
2022-08-05T06:25:59.717Z,97737.30
2022-08-05T06:28:10.718Z,97734.66
2022-08-05T06:30:40.664Z,97736.91
2022-08-05T06:33:09.913Z,97737.28
2022-08-05T06:36:07.411Z,97738.44
2022-08-05T06:38:36.794Z,97733.31
2022-08-05T06:41:07.959Z,97734.60
2022-08-05T06:43:59.267Z,97735.23
2022-08-05T06:46:29.690Z,97735.56
2022-08-05T06:48:59.708Z,97736.58
2022-08-05T06:51:31.069Z,97740.09
2022-08-05T06:54:00.132Z,97739.14
2022-08-05T06:56:34.155Z,97741.44
2022-08-05T06:59:08.422Z,97747.18
2022-08-05T07:01:40.685Z,97747.67
2022-08-05T07:04:10.482Z,97746.24
2022-08-05T07:06:38.525Z,97748.55
2022-08-05T07:09:06.365Z,97749.11
2022-08-05T07:11:37.114Z,97748.06
2022-08-05T07:14:29.739Z,97744.81
2022-08-05T07:17:58.199Z,97739.20
2022-08-05T07:22:38.559Z,97730.96
2022-08-05T07:25:22.779Z,97730.38
2022-08-05T07:27:58.374Z,97731.61
2022-08-05T07:30:33.697Z,97725.73
2022-08-05T07:33:05.359Z,97722.46
2022-08-05T07:36:02.310Z,97722.75
2022-08-05T07:38:33.758Z,97724.43
2022-08-05T07:42:08.031Z,97723.59
2022-08-05T07:43:58.250Z,97724.30
2022-08-05T07:46:28.664Z,97722.96
2022-08-05T07:49:02.069Z,97723.98
2022-08-05T07:51:40.172Z,97725.32
2022-08-05T07:54:10.034Z,97728.77
2022-08-05T07:57:14.844Z,97728.54
2022-08-05T07:59:38.981Z,97724.19
2022-08-05T08:02:15.885Z,97726.70
2022-08-05T08:04:47.208Z,97725.11
2022-08-05T08:07:15.456Z,97724.36
2022-08-05T08:09:43.707Z,97725.14
2022-08-05T08:12:35.332Z,97722.58
2022-08-05T08:15:03.309Z,97721.23
2022-08-05T08:17:32.614Z,97714.83
2022-08-05T08:20:21.697Z,97715.09
2022-08-05T08:22:56.001Z,97712.90
2022-08-05T08:25:26.905Z,97710.28
2022-08-05T08:28:18.165Z,97703.52
2022-08-05T08:30:47.537Z,97706.27
2022-08-05T08:33:16.423Z,97702.66
2022-08-05T08:35:52.353Z,97697.96
2022-08-05T08:38:32.245Z,97693.60
2022-08-05T08:41:09.482Z,97695.33
2022-08-05T08:45:18.646Z,97693.86
2022-08-05T08:46:29.548Z,97695.03
2022-08-05T08:50:05.720Z,97691.82
2022-08-05T08:52:05.779Z,97690.23
2022-08-05T08:54:37.403Z,97688.13
2022-08-05T08:57:11.565Z,97688.31
2022-08-05T08:59:41.970Z,97687.04
2022-08-05T09:02:16.607Z,97685.95
2022-08-05T09:04:58.103Z,97685.00
2022-08-05T09:07:39.749Z,97683.12
2022-08-05T09:10:26.915Z,97682.42
2022-08-05T09:12:56.996Z,97681.41
2022-08-05T09:15:32.723Z,97672.39
2022-08-05T09:18:09.502Z,97671.63
2022-08-05T09:20:38.394Z,97671.91
2022-08-05T09:23:18.578Z,97670.79
2022-08-05T09:26:02.468Z,97665.56
2022-08-05T09:28:34.295Z,97659.58
2022-08-05T09:31:23.283Z,97658.02
2022-08-05T09:34:01.800Z,97656.11
2022-08-05T09:36:54.882Z,97655.77
2022-08-05T09:39:41.215Z,97649.71
2022-08-05T09:42:24.452Z,97643.56
2022-08-05T09:44:57.482Z,97644.11
2022-08-05T09:47:55.227Z,97642.14
2022-08-05T09:50:38.521Z,97646.77
2022-08-05T09:53:18.364Z,97644.95
2022-08-05T09:55:56.715Z,97638.77
2022-08-05T09:58:29.175Z,97638.07
2022-08-05T10:00:59.847Z,97637.08
2022-08-05T10:03:51.827Z,97635.14
2022-08-05T10:06:20.666Z,97633.42
2022-08-05T10:08:53.843Z,97631.69
2022-08-05T10:11:23.527Z,97630.52
2022-08-05T10:13:54.702Z,97626.48
2022-08-05T10:16:41.744Z,97624.11
2022-08-05T10:19:23.351Z,97619.13
2022-08-05T10:21:59.770Z,97619.23
2022-08-05T10:24:28.540Z,97614.23
2022-08-05T10:27:00.511Z,97614.25
2022-08-05T10:30:41.519Z,97613.48
2022-08-05T10:32:53.841Z,97606.39
2022-08-05T10:35:40.342Z,97605.23
2022-08-05T10:38:08.791Z,97607.91
2022-08-05T10:40:46.489Z,97605.36
2022-08-05T10:43:40.289Z,97596.97
2022-08-05T10:46:13.510Z,97596.43
2022-08-05T10:48:57.342Z,97596.04
2022-08-05T10:51:29.230Z,97593.50
2022-08-05T10:54:01.711Z,97591.40
2022-08-05T10:56:56.107Z,97592.85
2022-08-05T11:00:03.480Z,97588.83
2022-08-05T11:02:37.526Z,97587.27
2022-08-05T11:05:10.140Z,97584.16
2022-08-05T11:08:02.892Z,97587.10
2022-08-05T11:10:38.698Z,97587.27
2022-08-05T11:13:40.000Z,97585.77
2022-08-05T11:16:47.945Z,97587.17
2022-08-05T11:20:10.582Z,97585.04
2022-08-05T11:22:50.021Z,97583.17
2022-08-05T11:26:05.450Z,97574.00
2022-08-05T11:28:18.886Z,97576.39
2022-08-05T11:30:56.048Z,97574.48
2022-08-05T11:33:48.734Z,97571.58
2022-08-05T11:36:42.836Z,97564.79
2022-08-05T11:39:14.445Z,97559.88
2022-08-05T11:42:01.996Z,97558.00
2022-08-05T11:44:53.464Z,97551.81
2022-08-05T11:47:48.538Z,97549.46
2022-08-05T11:50:14.284Z,97546.34
2022-08-05T11:52:44.013Z,97548.27
2022-08-05T11:55:14.784Z,97549.65
2022-08-05T11:58:08.467Z,97555.97
2022-08-05T12:00:38.061Z,97556.86
2022-08-05T12:03:29.461Z,97557.69
2022-08-05T12:06:06.390Z,97554.76
2022-08-05T12:08:51.105Z,97554.17
2022-08-05T12:11:24.282Z,97550.45
2022-08-05T12:14:04.102Z,97548.11
2022-08-05T12:16:38.350Z,97549.11
2022-08-05T12:19:08.239Z,97545.49
2022-08-05T12:21:44.219Z,97543.41
2022-08-05T12:24:17.612Z,97541.88
2022-08-05T12:26:50.787Z,97535.58
2022-08-05T12:29:23.969Z,97538.90
2022-08-05T12:32:02.138Z,97539.68
2022-08-05T12:34:35.722Z,97533.91
2022-08-05T12:37:14.029Z,97535.77
2022-08-05T12:39:51.036Z,97532.61
2022-08-05T12:42:21.275Z,97522.80
2022-08-05T12:44:53.187Z,97517.34
2022-08-05T12:47:31.104Z,97512.30
2022-08-05T12:50:03.016Z,97507.94
2022-08-05T12:52:39.268Z,97505.08
2022-08-05T12:55:28.408Z,97497.77
2022-08-05T12:58:50.508Z,97492.95
2022-08-05T13:01:59.711Z,97498.38
2022-08-05T13:03:41.737Z,97499.87
2022-08-05T13:06:16.576Z,97497.40
2022-08-05T13:08:52.212Z,97496.93
2022-08-05T13:12:02.617Z,97494.73
2022-08-05T13:14:24.763Z,97495.95
2022-08-05T13:17:10.336Z,97490.15
2022-08-05T13:19:51.018Z,97490.08
2022-08-05T13:22:28.530Z,97492.13
2022-08-05T13:25:05.732Z,97491.78
2022-08-05T13:27:39.078Z,97490.70
2022-08-05T13:30:34.137Z,97486.89
2022-08-05T13:33:01.373Z,97484.49
2022-08-05T13:35:43.085Z,97484.73
2022-08-05T13:38:28.369Z,97482.22
2022-08-05T13:41:00.095Z,97483.41
2022-08-05T13:43:43.989Z,97482.64
2022-08-05T13:46:35.824Z,97480.55
2022-08-05T13:49:10.555Z,97477.54
2022-08-05T13:51:46.603Z,97473.97
2022-08-05T13:54:17.132Z,97473.09
2022-08-05T13:56:51.595Z,97466.22
2022-08-05T13:59:24.577Z,97468.17
2022-08-05T14:01:57.469Z,97461.65
2022-08-05T14:04:54.183Z,97460.55
2022-08-05T14:08:05.512Z,97461.63
2022-08-05T14:10:28.841Z,97450.27
2022-08-05T14:12:59.562Z,97450.09
2022-08-05T14:16:04.560Z,97448.92
2022-08-05T14:18:18.169Z,97446.24
2022-08-05T14:20:48.181Z,97440.77
2022-08-05T14:23:19.210Z,97438.56
2022-08-05T14:25:53.948Z,97438.29
2022-08-05T14:28:27.026Z,97435.84
2022-08-05T14:30:56.669Z,97432.66
2022-08-05T14:33:24.581Z,97432.77
2022-08-05T14:35:54.347Z,97435.15
2022-08-05T14:38:32.683Z,97437.79
2022-08-05T14:41:06.072Z,97437.45
2022-08-05T14:44:02.461Z,97431.16
2022-08-05T14:46:28.358Z,97429.95
2022-08-05T14:49:03.477Z,97432.63
2022-08-05T14:51:38.146Z,97432.92
2022-08-05T14:54:27.892Z,97429.57
2022-08-05T14:56:55.934Z,97428.39
2022-08-05T14:59:23.774Z,97422.66
2022-08-05T15:01:53.853Z,97419.02
2022-08-05T15:04:22.727Z,97416.50
2022-08-05T15:06:51.557Z,97415.47
2022-08-05T15:09:52.428Z,97411.70
2022-08-05T15:12:16.387Z,97409.13
2022-08-05T15:14:50.102Z,97413.35
2022-08-05T15:17:45.867Z,97410.02
2022-08-05T15:20:18.814Z,97409.02
2022-08-05T15:22:54.292Z,97405.77
2022-08-05T15:25:50.888Z,97401.62
2022-08-05T15:28:15.735Z,97399.14
2022-08-05T15:30:45.585Z,97394.17
2022-08-05T15:34:04.031Z,97392.53
2022-08-05T15:36:05.191Z,97395.17
2022-08-05T15:38:40.872Z,97396.04
2022-08-05T15:41:21.949Z,97393.67
2022-08-05T15:43:54.889Z,97395.33
2022-08-05T15:46:25.104Z,97395.13
2022-08-05T15:49:01.425Z,97392.23
2022-08-05T15:52:03.964Z,97392.68
2022-08-05T15:54:35.176Z,97392.17
2022-08-05T15:57:07.665Z,97389.97
2022-08-05T15:59:36.550Z,97388.66
2022-08-05T16:02:09.601Z,97384.45
2022-08-05T16:04:43.508Z,97384.39
2022-08-05T16:07:11.824Z,97387.87
2022-08-05T16:09:42.182Z,97388.50
2022-08-05T16:12:11.503Z,97385.91
2022-08-05T16:14:40.052Z,97385.19
2022-08-05T16:17:08.290Z,97386.16
2022-08-05T16:20:05.217Z,97387.42
2022-08-05T16:22:27.308Z,97383.42
2022-08-05T16:24:55.799Z,97386.93
2022-08-05T16:27:47.261Z,97387.21
2022-08-05T16:30:26.513Z,97387.18
2022-08-05T16:32:57.910Z,97388.27
2022-08-05T16:35:27.738Z,97386.67
2022-08-05T16:38:15.338Z,97387.16
2022-08-05T16:40:52.316Z,97387.96
2022-08-05T16:43:27.955Z,97391.58
2022-08-05T16:46:07.387Z,97391.45
2022-08-05T16:48:40.815Z,97391.54
2022-08-05T16:51:10.463Z,97390.60
2022-08-05T16:54:02.729Z,97388.22
2022-08-05T16:56:30.388Z,97387.99
2022-08-05T16:58:58.421Z,97388.14
2022-08-05T17:01:26.907Z,97386.23
2022-08-05T17:03:59.544Z,97384.40
2022-08-05T17:06:27.356Z,97387.06
2022-08-05T17:08:55.094Z,97392.00
2022-08-05T17:11:25.307Z,97395.98
2022-08-05T17:13:54.811Z,97397.56
2022-08-05T17:16:38.086Z,97402.44
2022-08-05T17:19:07.718Z,97404.64
2022-08-05T17:21:39.520Z,97403.29
2022-08-05T17:24:28.368Z,97404.10
2022-08-05T17:26:58.294Z,97408.05
2022-08-05T17:29:39.947Z,97409.96
2022-08-05T17:32:11.481Z,97411.74
2022-08-05T17:34:46.212Z,97408.20
2022-08-05T17:37:36.123Z,97409.31
2022-08-05T17:40:15.440Z,97411.36
2022-08-05T17:42:50.931Z,97413.52
2022-08-05T17:45:22.036Z,97412.52
2022-08-05T17:47:54.434Z,97413.83
2022-08-05T17:50:28.909Z,97414.98
2022-08-05T17:52:59.630Z,97417.02
2022-08-05T17:55:38.426Z,97419.70
2022-08-05T17:58:10.844Z,97420.83
2022-08-05T18:00:45.550Z,97422.45
2022-08-05T18:03:56.285Z,97423.90
2022-08-05T18:06:11.808Z,97427.16
2022-08-05T18:08:45.819Z,97430.61
2022-08-05T18:11:24.293Z,97439.15
2022-08-05T18:14:03.671Z,97446.30
2022-08-05T18:16:33.610Z,97452.64
2022-08-05T18:19:02.064Z,97456.11
2022-08-05T18:22:09.725Z,97457.96
2022-08-05T18:24:17.632Z,97457.70
2022-08-05T18:26:45.418Z,97456.75
2022-08-05T18:29:16.862Z,97453.62
2022-08-05T18:31:45.054Z,97455.89
2022-08-05T18:34:13.464Z,97457.78
2022-08-05T18:36:43.525Z,97459.96
2022-08-05T18:39:42.399Z,97462.66
2022-08-05T18:42:06.336Z,97463.92
2022-08-05T18:44:48.911Z,97469.37
2022-08-05T18:47:19.767Z,97470.27
2022-08-05T18:50:10.592Z,97472.08
2022-08-05T18:52:51.465Z,97473.85
2022-08-05T18:55:21.730Z,97474.56
2022-08-05T18:57:54.108Z,97482.05
2022-08-05T19:00:31.013Z,97487.85
2022-08-05T19:03:04.006Z,97489.59
2022-08-05T19:06:11.105Z,97489.89
2022-08-05T19:08:30.819Z,97491.39
2022-08-05T19:11:04.577Z,97492.11
2022-08-05T19:13:35.868Z,97497.79
2022-08-05T19:16:21.998Z,97500.94
2022-08-05T19:18:56.626Z,97498.73
2022-08-05T19:21:27.590Z,97502.09
2022-08-05T19:24:07.069Z,97503.50
2022-08-05T19:26:54.314Z,97504.11
2022-08-05T19:29:35.861Z,97501.35
2022-08-05T19:32:11.093Z,97499.54
2022-08-05T19:34:39.954Z,97501.85
2022-08-05T19:37:09.995Z,97498.92
2022-08-05T19:39:45.859Z,97497.20
2022-08-05T19:42:34.847Z,97498.30
2022-08-05T19:45:05.999Z,97494.50
2022-08-05T19:47:37.896Z,97493.73
2022-08-05T19:50:07.751Z,97494.59
2022-08-05T19:52:38.492Z,97494.26
2022-08-05T19:56:11.741Z,97494.08
2022-08-05T19:58:06.753Z,97495.55
2022-08-05T20:00:42.803Z,97496.71
2022-08-05T20:03:11.402Z,97494.44
2022-08-05T20:05:43.232Z,97492.84
2022-08-05T20:08:18.891Z,97495.14
2022-08-05T20:10:49.647Z,97499.12
2022-08-05T20:13:18.417Z,97495.27
2022-08-05T20:15:58.390Z,97498.79
2022-08-05T20:18:33.424Z,97498.28
2022-08-05T20:21:06.729Z,97500.83
2022-08-05T20:23:39.181Z,97501.27
2022-08-05T20:26:20.941Z,97501.09
2022-08-05T20:28:50.982Z,97497.33
2022-08-05T20:31:21.867Z,97496.95
2022-08-05T20:33:51.762Z,97498.23
2022-08-05T20:36:21.775Z,97495.67
2022-08-05T20:38:54.282Z,97496.83
2022-08-05T20:41:44.176Z,97497.84
2022-08-05T20:44:18.962Z,97497.02
2022-08-05T20:46:59.975Z,97495.91
2022-08-05T20:49:28.169Z,97495.92
2022-08-05T20:51:57.321Z,97496.29
2022-08-05T20:54:59.415Z,97495.41
2022-08-05T20:57:42.213Z,97496.28
2022-08-05T21:00:20.813Z,97495.51
2022-08-05T21:03:01.298Z,97497.46
2022-08-05T21:05:47.841Z,97497.89
2022-08-05T21:08:17.403Z,97495.92
2022-08-05T21:10:48.489Z,97494.92
2022-08-05T21:13:36.780Z,97494.55
2022-08-05T21:16:05.803Z,97494.54
2022-08-05T21:18:33.756Z,97494.01
2022-08-05T21:21:01.486Z,97495.56
2022-08-05T21:23:37.163Z,97492.77
2022-08-05T21:26:12.499Z,97493.68
2022-08-05T21:28:47.995Z,97494.73
2022-08-05T21:31:19.606Z,97493.35
2022-08-05T21:33:49.377Z,97494.48
2022-08-05T21:36:27.699Z,97496.58
2022-08-05T21:38:57.928Z,97499.04
2022-08-05T21:41:34.041Z,97498.93
2022-08-05T21:44:04.881Z,97497.84
2022-08-05T21:46:34.503Z,97498.72
2022-08-05T21:49:08.105Z,97498.36
2022-08-05T21:52:22.404Z,97499.96
2022-08-05T21:54:41.481Z,97496.24
2022-08-05T21:57:30.666Z,97494.44
2022-08-05T22:00:04.975Z,97493.41
2022-08-05T22:02:34.754Z,97491.54
2022-08-05T22:05:02.525Z,97490.98
2022-08-05T22:07:39.834Z,97494.33
2022-08-05T22:10:25.488Z,97497.39
2022-08-05T22:13:58.831Z,97497.10
2022-08-05T22:16:00.852Z,97499.23
2022-08-05T22:18:32.643Z,97502.40
2022-08-05T22:21:00.384Z,97503.50
2022-08-05T22:24:01.303Z,97504.99
2022-08-05T22:26:50.660Z,97502.74
2022-08-05T22:29:26.785Z,97500.59
2022-08-05T22:31:59.492Z,97499.79
2022-08-05T22:34:31.797Z,97496.86
2022-08-05T22:37:00.743Z,97500.95
2022-08-05T22:39:34.534Z,97498.92
2022-08-05T22:42:10.933Z,97493.44
2022-08-05T22:44:48.424Z,97490.71
2022-08-05T22:47:28.653Z,97489.68
2022-08-05T22:50:20.443Z,97487.43
2022-08-05T22:52:49.246Z,97484.59
2022-08-05T22:55:18.886Z,97489.29
2022-08-05T22:57:49.839Z,97491.16
2022-08-05T23:00:20.703Z,97491.02
2022-08-05T23:02:52.050Z,97491.75
2022-08-05T23:05:22.040Z,97494.80
2022-08-05T23:07:51.294Z,97493.52
2022-08-05T23:10:20.627Z,97494.45
2022-08-05T23:12:54.767Z,97490.80
2022-08-05T23:15:26.909Z,97489.89
2022-08-05T23:18:00.466Z,97488.92
2022-08-05T23:20:32.587Z,97490.39
2022-08-05T23:23:05.973Z,97489.88
2022-08-05T23:25:54.534Z,97494.67
2022-08-05T23:28:29.284Z,97487.55
2022-08-05T23:31:16.045Z,97484.77
2022-08-05T23:34:04.282Z,97482.77
2022-08-05T23:36:39.791Z,97487.54
2022-08-05T23:39:16.588Z,97487.05
2022-08-05T23:41:52.250Z,97485.59
2022-08-05T23:44:24.958Z,97481.44
2022-08-05T23:46:56.093Z,97485.94
2022-08-05T23:49:34.079Z,97487.30
2022-08-05T23:52:25.099Z,97481.21
2022-08-05T23:54:54.210Z,97484.08
2022-08-05T23:57:23.269Z,97482.53
